sensor_id;sensor_type;location;lat;lon;timestamp;pressure;altitude;pressure_sealevel;temperature;humidity
6389;BME280;3227;42.654;23.360;2024-02-21T00:01:33;95039.31;;;8.31;80.72
6389;BME280;3227;42.654;23.360;2024-02-21T00:04:00;95059.97;;;8.47;81.44
6389;BME280;3227;42.654;23.360;2024-02-21T00:06:27;95060.97;;;8.56;81.23
6389;BME280;3227;42.654;23.360;2024-02-21T00:08:53;95026.59;;;8.36;80.79
6389;BME280;3227;42.654;23.360;2024-02-21T00:11:21;95051.59;;;8.57;80.51
6389;BME280;3227;42.654;23.360;2024-02-21T00:13:48;95065.34;;;8.65;80.50
6389;BME280;3227;42.654;23.360;2024-02-21T00:16:15;94958.72;;;7.97;80.60
6389;BME280;3227;42.654;23.360;2024-02-21T00:18:43;95055.69;;;8.46;80.71
6389;BME280;3227;42.654;23.360;2024-02-21T00:21:09;95053.91;;;8.42;81.17
6389;BME280;3227;42.654;23.360;2024-02-21T00:23:40;95047.09;;;8.40;81.59
6389;BME280;3227;42.654;23.360;2024-02-21T00:26:07;94985.94;;;7.97;81.36
6389;BME280;3227;42.654;23.360;2024-02-21T00:28:35;95055.19;;;8.18;82.08
6389;BME280;3227;42.654;23.360;2024-02-21T00:31:01;95038.94;;;8.13;82.02
6389;BME280;3227;42.654;23.360;2024-02-21T00:33:28;95049.31;;;8.22;82.22
6389;BME280;3227;42.654;23.360;2024-02-21T00:35:55;95031.34;;;8.18;82.38
6389;BME280;3227;42.654;23.360;2024-02-21T00:38:22;95048.75;;;8.37;82.07
6389;BME280;3227;42.654;23.360;2024-02-21T00:40:48;95044.53;;;8.40;81.83
6389;BME280;3227;42.654;23.360;2024-02-21T00:43:15;95047.22;;;8.50;81.15
6389;BME280;3227;42.654;23.360;2024-02-21T00:45:43;95041.28;;;8.51;80.95
6389;BME280;3227;42.654;23.360;2024-02-21T00:48:10;95039.56;;;8.50;80.89
6389;BME280;3227;42.654;23.360;2024-02-21T00:50:37;95037.81;;;8.46;81.41
6389;BME280;3227;42.654;23.360;2024-02-21T00:53:04;95038.69;;;8.46;80.97
6389;BME280;3227;42.654;23.360;2024-02-21T00:55:31;95044.50;;;8.37;81.27
6389;BME280;3227;42.654;23.360;2024-02-21T00:57:57;95042.78;;;8.36;81.45
6389;BME280;3227;42.654;23.360;2024-02-21T01:00:24;95037.44;;;8.26;81.81
6389;BME280;3227;42.654;23.360;2024-02-21T01:03:12;95032.50;;;8.33;81.97
6389;BME280;3227;42.654;23.360;2024-02-21T01:05:39;95036.81;;;8.36;82.32
6389;BME280;3227;42.654;23.360;2024-02-21T01:08:06;95027.63;;;8.49;81.37
6389;BME280;3227;42.654;23.360;2024-02-21T01:10:32;95021.81;;;8.56;81.08
6389;BME280;3227;42.654;23.360;2024-02-21T01:12:59;95018.28;;;8.49;80.75
6389;BME280;3227;42.654;23.360;2024-02-21T01:15:26;95011.34;;;8.39;80.80
6389;BME280;3227;42.654;23.360;2024-02-21T01:17:52;95015.63;;;8.43;81.23
6389;BME280;3227;42.654;23.360;2024-02-21T01:20:21;95017.38;;;8.46;80.96
6389;BME280;3227;42.654;23.360;2024-02-21T01:22:48;94991.38;;;8.18;81.02
6389;BME280;3227;42.654;23.360;2024-02-21T01:25:15;94954.19;;;7.81;82.48
6389;BME280;3227;42.654;23.360;2024-02-21T01:27:41;95012.53;;;8.11;82.36
6389;BME280;3227;42.654;23.360;2024-02-21T01:30:09;95004.53;;;7.90;83.59
6389;BME280;3227;42.654;23.360;2024-02-21T01:32:37;95012.50;;;8.10;83.16
6389;BME280;3227;42.654;23.360;2024-02-21T01:35:04;95002.16;;;8.02;82.86
6389;BME280;3227;42.654;23.360;2024-02-21T01:37:33;95002.25;;;8.07;82.95
6389;BME280;3227;42.654;23.360;2024-02-21T01:39:59;95002.34;;;8.13;82.48
6389;BME280;3227;42.654;23.360;2024-02-21T01:42:28;94995.50;;;8.10;82.28
6389;BME280;3227;42.654;23.360;2024-02-21T01:44:54;94997.38;;;8.20;82.03
6389;BME280;3227;42.654;23.360;2024-02-21T01:47:21;94934.66;;;7.82;81.75
6389;BME280;3227;42.654;23.360;2024-02-21T01:49:48;94989.94;;;8.32;81.58
6389;BME280;3227;42.654;23.360;2024-02-21T01:52:16;94992.56;;;8.37;81.25
6389;BME280;3227;42.654;23.360;2024-02-21T01:54:46;94960.84;;;8.24;80.81
6389;BME280;3227;42.654;23.360;2024-02-21T01:57:13;94969.50;;;8.32;80.34
6389;BME280;3227;42.654;23.360;2024-02-21T01:59:40;94987.53;;;8.42;79.79
6389;BME280;3227;42.654;23.360;2024-02-21T02:02:06;94986.03;;;8.54;79.61
6389;BME280;3227;42.654;23.360;2024-02-21T02:04:34;94992.03;;;8.58;79.21
6389;BME280;3227;42.654;23.360;2024-02-21T02:07:02;94995.47;;;8.60;78.71
6389;BME280;3227;42.654;23.360;2024-02-21T02:09:30;94998.03;;;8.60;78.78
6389;BME280;3227;42.654;23.360;2024-02-21T02:11:58;94992.84;;;8.57;78.68
6389;BME280;3227;42.654;23.360;2024-02-21T02:14:25;94989.47;;;8.58;78.29
6389;BME280;3227;42.654;23.360;2024-02-21T02:16:52;94982.59;;;8.54;78.07
6389;BME280;3227;42.654;23.360;2024-02-21T02:19:18;94990.34;;;8.60;77.37
6389;BME280;3227;42.654;23.360;2024-02-21T02:21:46;94993.75;;;8.59;78.05
6389;BME280;3227;42.654;23.360;2024-02-21T02:24:20;94997.28;;;8.68;77.87
6389;BME280;3227;42.654;23.360;2024-02-21T02:26:47;94987.06;;;8.67;77.69
6389;BME280;3227;42.654;23.360;2024-02-21T02:29:14;94993.00;;;8.66;77.73
6389;BME280;3227;42.654;23.360;2024-02-21T02:31:42;94939.75;;;8.34;78.36
6389;BME280;3227;42.654;23.360;2024-02-21T02:34:08;94957.00;;;8.48;77.72
6389;BME280;3227;42.654;23.360;2024-02-21T02:36:35;94968.19;;;8.59;77.88
6389;BME280;3227;42.654;23.360;2024-02-21T02:39:02;94977.63;;;8.63;77.83
6389;BME280;3227;42.654;23.360;2024-02-21T02:41:30;94970.72;;;8.56;78.09
6389;BME280;3227;42.654;23.360;2024-02-21T02:43:57;94971.50;;;8.52;78.63
6389;BME280;3227;42.654;23.360;2024-02-21T02:46:23;94968.91;;;8.47;78.41
6389;BME280;3227;42.654;23.360;2024-02-21T02:48:50;94975.84;;;8.56;78.24
6389;BME280;3227;42.654;23.360;2024-02-21T02:51:17;94974.91;;;8.51;78.24
6389;BME280;3227;42.654;23.360;2024-02-21T02:53:44;94979.91;;;8.45;78.61
6389;BME280;3227;42.654;23.360;2024-02-21T02:56:14;94982.50;;;8.46;78.69
6389;BME280;3227;42.654;23.360;2024-02-21T02:58:42;94978.06;;;8.34;79.13
6389;BME280;3227;42.654;23.360;2024-02-21T03:01:09;94982.06;;;8.20;80.06
6389;BME280;3227;42.654;23.360;2024-02-21T03:03:35;94974.44;;;8.22;80.44
6389;BME280;3227;42.654;23.360;2024-02-21T03:06:02;94982.16;;;8.26;80.15
6389;BME280;3227;42.654;23.360;2024-02-21T03:08:29;94979.50;;;8.20;80.34
6389;BME280;3227;42.654;23.360;2024-02-21T03:10:58;94964.63;;;7.95;80.49
6389;BME280;3227;42.654;23.360;2024-02-21T03:13:24;94975.56;;;7.88;81.64
6389;BME280;3227;42.654;23.360;2024-02-21T03:15:52;94989.22;;;7.91;81.90
6389;BME280;3227;42.654;23.360;2024-02-21T03:18:19;94989.34;;;7.99;81.64
6389;BME280;3227;42.654;23.360;2024-02-21T03:20:46;94997.19;;;8.10;81.27
6389;BME280;3227;42.654;23.360;2024-02-21T03:23:12;94991.78;;;7.90;81.72
6389;BME280;3227;42.654;23.360;2024-02-21T03:25:39;94990.22;;;7.98;81.87
6389;BME280;3227;42.654;23.360;2024-02-21T03:28:06;94997.28;;;8.16;81.51
6389;BME280;3227;42.654;23.360;2024-02-21T03:30:32;94994.91;;;8.26;80.88
6389;BME280;3227;42.654;23.360;2024-02-21T03:33:01;94995.97;;;8.37;79.91
6389;BME280;3227;42.654;23.360;2024-02-21T03:35:28;94999.50;;;8.44;79.42
6389;BME280;3227;42.654;23.360;2024-02-21T03:37:54;94966.78;;;8.22;79.42
6389;BME280;3227;42.654;23.360;2024-02-21T03:40:21;94972.69;;;8.19;79.35
6389;BME280;3227;42.654;23.360;2024-02-21T03:42:48;94983.94;;;8.30;79.25
6389;BME280;3227;42.654;23.360;2024-02-21T03:45:14;95015.78;;;8.52;78.51
6389;BME280;3227;42.654;23.360;2024-02-21T03:47:41;95019.19;;;8.53;78.67
6389;BME280;3227;42.654;23.360;2024-02-21T03:50:09;95022.75;;;8.62;78.24
6389;BME280;3227;42.654;23.360;2024-02-21T03:52:36;95019.97;;;8.49;78.42
6389;BME280;3227;42.654;23.360;2024-02-21T03:55:08;95009.63;;;8.38;79.07
6389;BME280;3227;42.654;23.360;2024-02-21T03:57:35;95017.25;;;8.36;78.90
6389;BME280;3227;42.654;23.360;2024-02-21T04:00:02;95010.03;;;8.16;80.14
6389;BME280;3227;42.654;23.360;2024-02-21T04:02:34;95010.59;;;7.96;80.87
6389;BME280;3227;42.654;23.360;2024-02-21T04:05:01;94945.91;;;7.46;81.16
6389;BME280;3227;42.654;23.360;2024-02-21T04:07:29;95013.88;;;7.91;82.25
6389;BME280;3227;42.654;23.360;2024-02-21T04:09:55;94950.16;;;7.46;81.93
6389;BME280;3227;42.654;23.360;2024-02-21T04:12:22;95009.47;;;7.81;82.59
6389;BME280;3227;42.654;23.360;2024-02-21T04:14:49;94992.59;;;7.89;83.04
6389;BME280;3227;42.654;23.360;2024-02-21T04:17:15;95003.06;;;8.04;82.98
6389;BME280;3227;42.654;23.360;2024-02-21T04:19:42;95007.25;;;8.00;82.11
6389;BME280;3227;42.654;23.360;2024-02-21T04:22:09;94989.16;;;7.87;81.49
6389;BME280;3227;42.654;23.360;2024-02-21T04:24:37;95003.06;;;8.04;81.34
6389;BME280;3227;42.654;23.360;2024-02-21T04:27:04;95003.16;;;8.10;81.13
6389;BME280;3227;42.654;23.360;2024-02-21T04:29:32;94944.00;;;7.83;80.22
6389;BME280;3227;42.654;23.360;2024-02-21T04:31:59;95011.88;;;8.24;79.94
6389;BME280;3227;42.654;23.360;2024-02-21T04:34:47;95006.09;;;8.31;79.67
6389;BME280;3227;42.654;23.360;2024-02-21T04:37:14;95009.59;;;8.36;79.22
6389;BME280;3227;42.654;23.360;2024-02-21T04:39:42;94993.09;;;8.19;79.46
6389;BME280;3227;42.654;23.360;2024-02-21T04:42:09;95009.47;;;8.30;79.65
6389;BME280;3227;42.654;23.360;2024-02-21T04:44:35;95009.63;;;8.41;79.16
6389;BME280;3227;42.654;23.360;2024-02-21T04:47:03;94946.66;;;7.89;78.93
6389;BME280;3227;42.654;23.360;2024-02-21T04:49:30;95002.53;;;8.25;79.61
6389;BME280;3227;42.654;23.360;2024-02-21T04:51:57;94969.84;;;8.02;79.55
6389;BME280;3227;42.654;23.360;2024-02-21T04:54:28;95000.94;;;8.30;79.27
6389;BME280;3227;42.654;23.360;2024-02-21T04:56:56;95001.69;;;8.24;79.29
6389;BME280;3227;42.654;23.360;2024-02-21T04:59:23;95001.69;;;8.24;79.10
6389;BME280;3227;42.654;23.360;2024-02-21T05:01:50;95001.75;;;8.27;79.09
6389;BME280;3227;42.654;23.360;2024-02-21T05:04:17;95005.19;;;8.29;78.86
6389;BME280;3227;42.654;23.360;2024-02-21T05:06:43;95001.75;;;8.27;78.79
6389;BME280;3227;42.654;23.360;2024-02-21T05:09:10;95005.91;;;8.21;79.33
6389;BME280;3227;42.654;23.360;2024-02-21T05:11:37;94999.63;;;8.02;79.93
6389;BME280;3227;42.654;23.360;2024-02-21T05:14:05;95012.28;;;7.96;80.15
6389;BME280;3227;42.654;23.360;2024-02-21T05:16:32;95019.06;;;7.95;80.50
6389;BME280;3227;42.654;23.360;2024-02-21T05:18:59;95021.69;;;8.00;80.23
6389;BME280;3227;42.654;23.360;2024-02-21T05:21:26;95022.66;;;8.05;80.14
6389;BME280;3227;42.654;23.360;2024-02-21T05:23:53;95024.34;;;8.05;79.88
6389;BME280;3227;42.654;23.360;2024-02-21T05:26:20;95020.94;;;8.04;79.79
6389;BME280;3227;42.654;23.360;2024-02-21T05:28:48;95023.44;;;8.02;80.08
6389;BME280;3227;42.654;23.360;2024-02-21T05:31:17;95020.19;;;8.11;80.24
6389;BME280;3227;42.654;23.360;2024-02-21T05:33:44;95019.44;;;8.15;79.52
6389;BME280;3227;42.654;23.360;2024-02-21T05:36:11;95014.38;;;8.20;78.96
6389;BME280;3227;42.654;23.360;2024-02-21T05:38:37;94938.75;;;7.74;79.20
6389;BME280;3227;42.654;23.360;2024-02-21T05:41:04;95030.72;;;8.29;78.95
6389;BME280;3227;42.654;23.360;2024-02-21T05:43:31;95014.50;;;8.27;78.82
6389;BME280;3227;42.654;23.360;2024-02-21T05:45:58;95024.91;;;8.36;78.98
6389;BME280;3227;42.654;23.360;2024-02-21T05:48:26;95030.97;;;8.43;78.71
6389;BME280;3227;42.654;23.360;2024-02-21T05:50:53;95040.28;;;8.41;78.45
6389;BME280;3227;42.654;23.360;2024-02-21T05:53:20;95037.69;;;8.38;79.05
6389;BME280;3227;42.654;23.360;2024-02-21T05:55:46;95042.88;;;8.43;78.61
6389;BME280;3227;42.654;23.360;2024-02-21T05:58:13;95039.53;;;8.47;78.82
6389;BME280;3227;42.654;23.360;2024-02-21T06:00:40;95046.31;;;8.45;78.43
6389;BME280;3227;42.654;23.360;2024-02-21T06:03:06;95023.03;;;8.28;78.56
6389;BME280;3227;42.654;23.360;2024-02-21T06:05:38;94970.66;;;8.00;78.19
6389;BME280;3227;42.654;23.360;2024-02-21T06:08:05;95037.91;;;8.52;78.08
6389;BME280;3227;42.654;23.360;2024-02-21T06:10:32;95018.13;;;8.40;77.45
6389;BME280;3227;42.654;23.360;2024-02-21T06:12:59;95048.13;;;8.52;77.14
6389;BME280;3227;42.654;23.360;2024-02-21T06:15:25;95055.00;;;8.57;77.11
6389;BME280;3227;42.654;23.360;2024-02-21T06:17:52;95060.25;;;8.65;76.60
6389;BME280;3227;42.654;23.360;2024-02-21T06:20:19;95064.63;;;8.72;76.07
6389;BME280;3227;42.654;23.360;2024-02-21T06:22:47;95051.59;;;8.57;76.45
6389;BME280;3227;42.654;23.360;2024-02-21T06:25:13;95059.53;;;8.72;75.53
6389;BME280;3227;42.654;23.360;2024-02-21T06:27:40;95068.22;;;8.85;75.02
6389;BME280;3227;42.654;23.360;2024-02-21T06:30:08;95064.91;;;8.92;74.99
6389;BME280;3227;42.654;23.360;2024-02-21T06:32:34;95065.09;;;9.04;74.42
6389;BME280;3227;42.654;23.360;2024-02-21T06:35:01;95006.09;;;8.90;74.04
6389;BME280;3227;42.654;23.360;2024-02-21T06:37:28;95072.63;;;9.55;72.60
6389;BME280;3227;42.654;23.360;2024-02-21T06:39:56;95061.69;;;9.68;71.89
6389;BME280;3227;42.654;23.360;2024-02-21T06:42:24;95070.41;;;9.85;71.59
6389;BME280;3227;42.654;23.360;2024-02-21T06:44:51;95067.00;;;9.86;70.50
6389;BME280;3227;42.654;23.360;2024-02-21T06:47:18;95078.69;;;9.65;70.69
6389;BME280;3227;42.654;23.360;2024-02-21T06:49:48;95083.88;;;9.72;70.97
6389;BME280;3227;42.654;23.360;2024-02-21T06:52:15;95095.59;;;9.52;70.93
6389;BME280;3227;42.654;23.360;2024-02-21T06:54:42;95080.16;;;9.46;70.98
6389;BME280;3227;42.654;23.360;2024-02-21T06:57:10;95098.22;;;9.58;71.26
6389;BME280;3227;42.654;23.360;2024-02-21T06:59:37;95093.88;;;9.52;71.46
6389;BME280;3227;42.654;23.360;2024-02-21T07:02:04;95088.97;;;9.68;72.04
6389;BME280;3227;42.654;23.360;2024-02-21T07:04:30;95059.19;;;9.76;71.27
6389;BME280;3227;42.654;23.360;2024-02-21T07:06:57;95088.47;;;9.99;70.33
6389;BME280;3227;42.654;23.360;2024-02-21T07:09:24;95091.09;;;10.04;70.73
6389;BME280;3227;42.654;23.360;2024-02-21T07:11:50;95086.84;;;10.07;70.69
6389;BME280;3227;42.654;23.360;2024-02-21T07:14:19;95088.81;;;10.29;70.36
6389;BME280;3227;42.654;23.360;2024-02-21T07:16:46;94944.66;;;9.52;68.89
6389;BME280;3227;42.654;23.360;2024-02-21T07:19:12;95090.53;;;10.29;69.47
6389;BME280;3227;42.654;23.360;2024-02-21T07:21:39;95094.56;;;10.09;69.34
6389;BME280;3227;42.654;23.360;2024-02-21T07:24:12;95095.28;;;9.99;70.50
6389;BME280;3227;42.654;23.360;2024-02-21T07:26:41;95099.47;;;9.90;70.10
6389;BME280;3227;42.654;23.360;2024-02-21T07:29:08;94973.09;;;9.07;70.95
6389;BME280;3227;42.654;23.360;2024-02-21T07:31:40;95103.53;;;9.73;71.24
6389;BME280;3227;42.654;23.360;2024-02-21T07:34:07;95053.78;;;9.51;71.72
6389;BME280;3227;42.654;23.360;2024-02-21T07:36:34;95092.59;;;9.86;71.67
6389;BME280;3227;42.654;23.360;2024-02-21T07:39:02;94977.56;;;9.22;70.69
6389;BME280;3227;42.654;23.360;2024-02-21T07:41:30;95103.00;;;10.00;70.75
6389;BME280;3227;42.654;23.360;2024-02-21T07:43:57;95039.44;;;9.61;70.74
6389;BME280;3227;42.654;23.360;2024-02-21T07:46:24;95098.84;;;10.10;71.30
6389;BME280;3227;42.654;23.360;2024-02-21T07:48:52;95100.66;;;10.18;70.88
6389;BME280;3227;42.654;23.360;2024-02-21T07:51:18;95093.09;;;10.27;70.24
6389;BME280;3227;42.654;23.360;2024-02-21T07:53:50;95090.56;;;10.32;69.91
6389;BME280;3227;42.654;23.360;2024-02-21T07:56:17;95094.75;;;10.24;69.82
6389;BME280;3227;42.654;23.360;2024-02-21T07:58:44;94955.69;;;9.48;70.62
6389;BME280;3227;42.654;23.360;2024-02-21T08:01:11;95095.59;;;10.24;69.51
6389;BME280;3227;42.654;23.360;2024-02-21T08:03:37;95098.75;;;10.02;70.05
6389;BME280;3227;42.654;23.360;2024-02-21T08:06:06;95092.41;;;9.70;71.14
6389;BME280;3227;42.654;23.360;2024-02-21T08:08:38;95090.16;;;9.96;70.91
6389;BME280;3227;42.654;23.360;2024-02-21T08:11:04;94959.75;;;9.31;69.93
6389;BME280;3227;42.654;23.360;2024-02-21T08:13:36;95081.06;;;10.22;70.55
6389;BME280;3227;42.654;23.360;2024-02-21T08:16:03;95074.38;;;10.36;70.17
6389;BME280;3227;42.654;23.360;2024-02-21T08:18:30;95040.97;;;10.25;69.05
6389;BME280;3227;42.654;23.360;2024-02-21T08:20:57;95093.38;;;10.59;67.64
6389;BME280;3227;42.654;23.360;2024-02-21T08:23:25;94913.91;;;9.46;67.94
6389;BME280;3227;42.654;23.360;2024-02-21T08:25:52;95078.03;;;10.64;68.32
6389;BME280;3227;42.654;23.360;2024-02-21T08:28:18;95088.41;;;10.81;68.16
6389;BME280;3227;42.654;23.360;2024-02-21T08:30:45;95090.22;;;10.91;68.38
6389;BME280;3227;42.654;23.360;2024-02-21T08:33:14;95090.38;;;11.11;66.65
6389;BME280;3227;42.654;23.360;2024-02-21T08:35:42;95094.72;;;11.25;66.55
6389;BME280;3227;42.654;23.360;2024-02-21T08:38:08;95086.25;;;11.35;65.43
6389;BME280;3227;42.654;23.360;2024-02-21T08:40:37;95092.31;;;11.51;64.52
6389;BME280;3227;42.654;23.360;2024-02-21T08:43:03;95090.59;;;11.53;64.02
6389;BME280;3227;42.654;23.360;2024-02-21T08:45:30;94967.88;;;10.68;63.26
6389;BME280;3227;42.654;23.360;2024-02-21T08:47:57;95045.19;;;11.34;62.98
6389;BME280;3227;42.654;23.360;2024-02-21T08:50:23;95080.69;;;10.79;63.58
6389;BME280;3227;42.654;23.360;2024-02-21T08:52:50;95032.78;;;10.66;65.11
6389;BME280;3227;42.654;23.360;2024-02-21T08:55:17;95079.19;;;11.02;63.21
6389;BME280;3227;42.654;23.360;2024-02-21T08:57:45;95086.25;;;11.40;64.44
6389;BME280;3227;42.654;23.360;2024-02-21T09:00:13;95092.22;;;11.37;62.45
6389;BME280;3227;42.654;23.360;2024-02-21T09:02:40;95093.22;;;11.64;61.97
6389;BME280;3227;42.654;23.360;2024-02-21T09:05:08;95088.94;;;11.63;61.34
6389;BME280;3227;42.654;23.360;2024-02-21T09:07:35;95092.41;;;11.74;61.19
6389;BME280;3227;42.654;23.360;2024-02-21T09:10:01;95055.56;;;11.61;61.40
6389;BME280;3227;42.654;23.360;2024-02-21T09:12:28;95065.03;;;11.68;60.84
6389;BME280;3227;42.654;23.360;2024-02-21T09:14:57;95092.41;;;11.74;60.94
6389;BME280;3227;42.654;23.360;2024-02-21T09:17:24;95095.84;;;11.73;59.58
6389;BME280;3227;42.654;23.360;2024-02-21T09:19:51;95097.50;;;11.65;59.89
6389;BME280;3227;42.654;23.360;2024-02-21T09:22:18;95088.88;;;11.54;59.81
6389;BME280;3227;42.654;23.360;2024-02-21T09:24:44;95097.19;;;11.13;61.32
6389;BME280;3227;42.654;23.360;2024-02-21T09:27:12;95093.03;;;11.26;61.85
6389;BME280;3227;42.654;23.360;2024-02-21T09:29:39;95092.22;;;11.37;63.02
6389;BME280;3227;42.654;23.360;2024-02-21T09:32:07;95081.09;;;11.37;62.93
6389;BME280;3227;42.654;23.360;2024-02-21T09:34:34;94973.75;;;10.52;63.41
6389;BME280;3227;42.654;23.360;2024-02-21T09:37:01;95097.28;;;11.24;63.84
6389;BME280;3227;42.654;23.360;2024-02-21T09:39:27;95094.81;;;11.36;63.89
6389;BME280;3227;42.654;23.360;2024-02-21T09:42:04;95076.84;;;11.40;63.75
6389;BME280;3227;42.654;23.360;2024-02-21T09:44:36;95097.41;;;11.47;64.33
6389;BME280;3227;42.654;23.360;2024-02-21T09:47:09;95094.88;;;11.50;63.59
6389;BME280;3227;42.654;23.360;2024-02-21T09:49:37;95104.34;;;11.60;65.07
6389;BME280;3227;42.654;23.360;2024-02-21T09:52:07;95090.59;;;11.49;63.24
6389;BME280;3227;42.654;23.360;2024-02-21T09:54:34;95090.53;;;11.41;64.30
6389;BME280;3227;42.654;23.360;2024-02-21T09:57:02;94902.72;;;10.33;64.05
6389;BME280;3227;42.654;23.360;2024-02-21T09:59:31;95082.91;;;11.55;62.36
6389;BME280;3227;42.654;23.360;2024-02-21T10:01:58;95073.44;;;11.41;63.71
6389;BME280;3227;42.654;23.360;2024-02-21T10:04:27;95064.03;;;11.40;64.51
6389;BME280;3227;42.654;23.360;2024-02-21T10:06:54;95033.19;;;11.33;64.28
6389;BME280;3227;42.654;23.360;2024-02-21T10:09:22;95085.66;;;11.88;61.05
6389;BME280;3227;42.654;23.360;2024-02-21T10:11:49;95082.28;;;12.06;59.63
6389;BME280;3227;42.654;23.360;2024-02-21T10:14:16;95085.72;;;12.05;59.28
6389;BME280;3227;42.654;23.360;2024-02-21T10:16:43;95072.88;;;12.08;58.43
6389;BME280;3227;42.654;23.360;2024-02-21T10:19:17;95073.75;;;12.08;58.25
6389;BME280;3227;42.654;23.360;2024-02-21T10:21:59;95070.31;;;12.06;58.78
6389;BME280;3227;42.654;23.360;2024-02-21T10:24:26;94943.34;;;11.22;57.61
6389;BME280;3227;42.654;23.360;2024-02-21T10:26:59;95060.00;;;11.93;58.74
6389;BME280;3227;42.654;23.360;2024-02-21T10:29:26;95055.75;;;12.05;59.74
6389;BME280;3227;42.654;23.360;2024-02-21T10:32:04;95004.34;;;11.86;58.36
6389;BME280;3227;42.654;23.360;2024-02-21T10:34:30;95048.09;;;12.27;58.61
6389;BME280;3227;42.654;23.360;2024-02-21T10:37:01;95024.09;;;12.28;60.02
6389;BME280;3227;42.654;23.360;2024-02-21T10:39:29;95036.13;;;12.41;57.20
6389;BME280;3227;42.654;23.360;2024-02-21T10:42:00;94999.25;;;12.13;57.41
6389;BME280;3227;42.654;23.360;2024-02-21T10:44:28;95029.25;;;12.34;55.71
6389;BME280;3227;42.654;23.360;2024-02-21T10:46:56;95020.69;;;12.35;56.45
6389;BME280;3227;42.654;23.360;2024-02-21T10:49:24;95018.97;;;12.25;57.37
6389;BME280;3227;42.654;23.360;2024-02-21T10:51:55;95024.13;;;12.34;58.92
6389;BME280;3227;42.654;23.360;2024-02-21T10:54:34;94653.41;;;10.29;56.24
6389;BME280;3227;42.654;23.360;2024-02-21T10:57:05;94954.72;;;12.05;55.99
6389;BME280;3227;42.654;23.360;2024-02-21T10:59:33;95001.00;;;12.32;55.06
6389;BME280;3227;42.654;23.360;2024-02-21T11:02:01;94996.72;;;12.51;55.46
6389;BME280;3227;42.654;23.360;2024-02-21T11:04:28;94806.59;;;11.55;55.58
6389;BME280;3227;42.654;23.360;2024-02-21T11:06:57;94869.09;;;12.15;55.33
6389;BME280;3227;42.654;23.360;2024-02-21T11:09:31;94993.22;;;13.05;54.56
6389;BME280;3227;42.654;23.360;2024-02-21T11:11:58;94982.94;;;13.16;53.53
6389;BME280;3227;42.654;23.360;2024-02-21T11:14:27;94965.78;;;13.09;52.26
6389;BME280;3227;42.654;23.360;2024-02-21T11:16:54;94982.88;;;13.28;53.86
6389;BME280;3227;42.654;23.360;2024-02-21T11:19:22;94976.91;;;13.23;52.46
6389;BME280;3227;42.654;23.360;2024-02-21T11:21:49;94983.84;;;12.48;52.92
6389;BME280;3227;42.654;23.360;2024-02-21T11:24:25;94976.97;;;12.61;53.10
6389;BME280;3227;42.654;23.360;2024-02-21T11:27:07;94978.69;;;12.69;53.58
6389;BME280;3227;42.654;23.360;2024-02-21T11:29:40;94982.13;;;12.53;48.67
6389;BME280;3227;42.654;23.360;2024-02-21T11:32:09;94977.84;;;12.46;51.64
6389;BME280;3227;42.654;23.360;2024-02-21T11:34:36;94975.31;;;12.43;50.07
6389;BME280;3227;42.654;23.360;2024-02-21T11:37:12;94954.72;;;12.40;51.27
6389;BME280;3227;42.654;23.360;2024-02-21T11:39:41;94970.16;;;12.34;50.26
6389;BME280;3227;42.654;23.360;2024-02-21T11:42:09;94974.41;;;11.92;50.94
6389;BME280;3227;42.654;23.360;2024-02-21T11:44:38;94971.00;;;12.02;51.82
6389;BME280;3227;42.654;23.360;2024-02-21T11:47:05;94933.25;;;11.74;51.93
6389;BME280;3227;42.654;23.360;2024-02-21T11:49:36;94950.44;;;11.90;52.54
6389;BME280;3227;42.654;23.360;2024-02-21T11:52:03;94956.44;;;12.04;52.57
6389;BME280;3227;42.654;23.360;2024-02-21T11:54:31;94958.16;;;12.22;51.93
6389;BME280;3227;42.654;23.360;2024-02-21T11:56:58;94951.28;;;12.19;52.69
6389;BME280;3227;42.654;23.360;2024-02-21T11:59:26;94957.28;;;12.29;51.33
6389;BME280;3227;42.654;23.360;2024-02-21T12:01:53;94950.44;;;12.20;52.26
6389;BME280;3227;42.654;23.360;2024-02-21T12:04:20;94954.72;;;12.40;52.74
6389;BME280;3227;42.654;23.360;2024-02-21T12:06:49;94897.34;;;12.03;51.34
6389;BME280;3227;42.654;23.360;2024-02-21T12:09:16;94962.44;;;12.47;49.49
6389;BME280;3227;42.654;23.360;2024-02-21T12:11:43;94947.88;;;12.36;50.04
6389;BME280;3227;42.654;23.360;2024-02-21T12:14:10;94816.00;;;11.64;51.23
6389;BME280;3227;42.654;23.360;2024-02-21T12:16:38;94950.44;;;12.39;51.44
6389;BME280;3227;42.654;23.360;2024-02-21T12:19:05;94843.38;;;11.71;51.80
6389;BME280;3227;42.654;23.360;2024-02-21T12:21:34;94941.91;;;12.35;51.84
6389;BME280;3227;42.654;23.360;2024-02-21T12:24:11;94919.63;;;12.13;51.53
6389;BME280;3227;42.654;23.360;2024-02-21T12:26:39;94941.03;;;12.32;52.15
6389;BME280;3227;42.654;23.360;2024-02-21T12:29:06;94941.88;;;12.44;51.92
6389;BME280;3227;42.654;23.360;2024-02-21T12:31:34;94815.16;;;11.71;51.42
6389;BME280;3227;42.654;23.360;2024-02-21T12:34:03;94931.63;;;12.25;52.98
6389;BME280;3227;42.654;23.360;2024-02-21T12:36:29;94937.59;;;12.13;53.27
6389;BME280;3227;42.654;23.360;2024-02-21T12:38:56;94917.88;;;11.95;52.46
6389;BME280;3227;42.654;23.360;2024-02-21T12:41:23;94939.22;;;11.70;52.90
6389;BME280;3227;42.654;23.360;2024-02-21T12:43:50;94934.09;;;11.61;53.22
6389;BME280;3227;42.654;23.360;2024-02-21T12:46:17;94919.53;;;11.52;54.79
6389;BME280;3227;42.654;23.360;2024-02-21T12:48:44;94925.56;;;11.69;54.58
6389;BME280;3227;42.654;23.360;2024-02-21T12:51:12;94928.16;;;11.86;54.05
6389;BME280;3227;42.654;23.360;2024-02-21T12:53:39;94925.59;;;11.88;53.61
6389;BME280;3227;42.654;23.360;2024-02-21T12:56:06;94918.75;;;11.74;52.84
6389;BME280;3227;42.654;23.360;2024-02-21T12:58:33;94920.41;;;11.74;53.67
6389;BME280;3227;42.654;23.360;2024-02-21T13:00:59;94916.16;;;11.87;53.08
6389;BME280;3227;42.654;23.360;2024-02-21T13:03:26;94920.47;;;11.91;53.69
6389;BME280;3227;42.654;23.360;2024-02-21T13:05:53;94919.63;;;12.02;54.47
6389;BME280;3227;42.654;23.360;2024-02-21T13:08:21;94911.94;;;12.10;52.21
6389;BME280;3227;42.654;23.360;2024-02-21T13:10:48;94891.38;;;12.02;54.06
6389;BME280;3227;42.654;23.360;2024-02-21T13:13:15;94898.22;;;12.15;53.06
6389;BME280;3227;42.654;23.360;2024-02-21T13:15:42;94900.78;;;12.06;54.52
6389;BME280;3227;42.654;23.360;2024-02-21T13:18:09;94900.75;;;11.80;56.49
6389;BME280;3227;42.654;23.360;2024-02-21T13:20:36;94896.41;;;11.61;57.75